sensor_id;sensor_type;location;lat;lon;timestamp;P1;durP1;ratioP1;P2;durP2;ratioP2
44428;SDS011;30134;47.866;-4.222;2023-11-19T00:00:50;34.83;;;17.70;;
44428;SDS011;30134;47.866;-4.222;2023-11-19T00:03:20;32.08;;;16.17;;
44428;SDS011;30134;47.866;-4.222;2023-11-19T00:05:46;36.72;;;16.45;;
44428;SDS011;30134;47.866;-4.222;2023-11-19T00:08:13;38.03;;;16.30;;
44428;SDS011;30134;47.866;-4.222;2023-11-19T00:10:42;36.97;;;16.58;;
44428;SDS011;30134;47.866;-4.222;2023-11-19T00:13:08;35.97;;;16.65;;
44428;SDS011;30134;47.866;-4.222;2023-11-19T00:15:35;33.15;;;15.52;;
44428;SDS011;30134;47.866;-4.222;2023-11-19T00:18:04;30.40;;;14.18;;
44428;SDS011;30134;47.866;-4.222;2023-11-19T00:20:30;30.75;;;14.35;;
44428;SDS011;30134;47.866;-4.222;2023-11-19T00:23:04;33.55;;;14.68;;
44428;SDS011;30134;47.866;-4.222;2023-11-19T00:25:30;30.75;;;13.80;;
44428;SDS011;30134;47.866;-4.222;2023-11-19T00:28:00;29.10;;;13.50;;
44428;SDS011;30134;47.866;-4.222;2023-11-19T00:30:26;27.30;;;12.75;;
44428;SDS011;30134;47.866;-4.222;2023-11-19T00:32:52;26.25;;;12.82;;
44428;SDS011;30134;47.866;-4.222;2023-11-19T00:35:18;24.40;;;12.55;;
44428;SDS011;30134;47.866;-4.222;2023-11-19T00:37:45;25.10;;;12.38;;
44428;SDS011;30134;47.866;-4.222;2023-11-19T00:40:12;26.80;;;11.57;;
44428;SDS011;30134;47.866;-4.222;2023-11-19T00:42:41;21.08;;;10.55;;
44428;SDS011;30134;47.866;-4.222;2023-11-19T00:45:08;28.35;;;12.32;;
44428;SDS011;30134;47.866;-4.222;2023-11-19T00:47:37;24.65;;;11.80;;
44428;SDS011;30134;47.866;-4.222;2023-11-19T00:50:03;27.75;;;11.18;;
44428;SDS011;30134;47.866;-4.222;2023-11-19T00:52:31;20.08;;;9.85;;
44428;SDS011;30134;47.866;-4.222;2023-11-19T00:54:57;18.85;;;9.82;;
44428;SDS011;30134;47.866;-4.222;2023-11-19T00:57:23;20.60;;;9.95;;
44428;SDS011;30134;47.866;-4.222;2023-11-19T00:59:49;21.23;;;10.18;;
44428;SDS011;30134;47.866;-4.222;2023-11-19T01:02:15;16.95;;;7.93;;
44428;SDS011;30134;47.866;-4.222;2023-11-19T01:04:45;17.45;;;8.82;;
44428;SDS011;30134;47.866;-4.222;2023-11-19T01:07:11;20.77;;;8.95;;
44428;SDS011;30134;47.866;-4.222;2023-11-19T01:09:41;19.05;;;8.55;;
44428;SDS011;30134;47.866;-4.222;2023-11-19T01:12:08;18.90;;;8.07;;
44428;SDS011;30134;47.866;-4.222;2023-11-19T01:14:35;17.67;;;8.43;;
44428;SDS011;30134;47.866;-4.222;2023-11-19T01:17:02;16.67;;;7.97;;
44428;SDS011;30134;47.866;-4.222;2023-11-19T01:19:30;17.52;;;7.50;;
44428;SDS011;30134;47.866;-4.222;2023-11-19T01:21:56;17.85;;;8.13;;
44428;SDS011;30134;47.866;-4.222;2023-11-19T01:24:22;15.85;;;8.05;;
44428;SDS011;30134;47.866;-4.222;2023-11-19T01:26:48;16.52;;;7.10;;
44428;SDS011;30134;47.866;-4.222;2023-11-19T01:29:14;18.65;;;7.30;;
44428;SDS011;30134;47.866;-4.222;2023-11-19T01:31:45;17.90;;;7.13;;
44428;SDS011;30134;47.866;-4.222;2023-11-19T01:34:16;12.98;;;6.55;;
44428;SDS011;30134;47.866;-4.222;2023-11-19T01:36:42;13.88;;;6.78;;
44428;SDS011;30134;47.866;-4.222;2023-11-19T01:39:09;15.45;;;6.35;;
44428;SDS011;30134;47.866;-4.222;2023-11-19T01:41:35;13.35;;;6.50;;
44428;SDS011;30134;47.866;-4.222;2023-11-19T01:44:02;12.88;;;5.60;;
44428;SDS011;30134;47.866;-4.222;2023-11-19T01:46:30;13.90;;;6.05;;
44428;SDS011;30134;47.866;-4.222;2023-11-19T01:48:59;13.82;;;5.15;;
44428;SDS011;30134;47.866;-4.222;2023-11-19T01:51:27;13.38;;;5.68;;
44428;SDS011;30134;47.866;-4.222;2023-11-19T01:53:54;12.10;;;5.22;;
44428;SDS011;30134;47.866;-4.222;2023-11-19T01:56:22;13.00;;;5.43;;
44428;SDS011;30134;47.866;-4.222;2023-11-19T01:58:49;10.88;;;5.15;;
44428;SDS011;30134;47.866;-4.222;2023-11-19T02:01:16;13.15;;;5.20;;
44428;SDS011;30134;47.866;-4.222;2023-11-19T02:03:42;11.38;;;4.53;;
44428;SDS011;30134;47.866;-4.222;2023-11-19T02:06:08;10.63;;;4.53;;
44428;SDS011;30134;47.866;-4.222;2023-11-19T02:08:35;12.45;;;5.05;;
44428;SDS011;30134;47.866;-4.222;2023-11-19T02:11:03;9.50;;;4.43;;
44428;SDS011;30134;47.866;-4.222;2023-11-19T02:13:31;11.82;;;4.65;;
44428;SDS011;30134;47.866;-4.222;2023-11-19T02:15:58;11.35;;;5.05;;
44428;SDS011;30134;47.866;-4.222;2023-11-19T02:18:25;10.40;;;4.70;;
44428;SDS011;30134;47.866;-4.222;2023-11-19T02:20:53;10.82;;;3.95;;
44428;SDS011;30134;47.866;-4.222;2023-11-19T02:23:25;9.55;;;4.47;;
44428;SDS011;30134;47.866;-4.222;2023-11-19T02:26:02;8.10;;;4.28;;
44428;SDS011;30134;47.866;-4.222;2023-11-19T02:28:43;8.52;;;4.03;;
44428;SDS011;30134;47.866;-4.222;2023-11-19T02:31:10;10.35;;;4.35;;
44428;SDS011;30134;47.866;-4.222;2023-11-19T02:33:37;10.77;;;4.10;;
44428;SDS011;30134;47.866;-4.222;2023-11-19T02:36:07;11.70;;;4.15;;
44428;SDS011;30134;47.866;-4.222;2023-11-19T02:38:34;8.90;;;3.95;;
44428;SDS011;30134;47.866;-4.222;2023-11-19T02:41:04;9.82;;;4.03;;
44428;SDS011;30134;47.866;-4.222;2023-11-19T02:43:36;7.93;;;3.78;;
44428;SDS011;30134;47.866;-4.222;2023-11-19T02:48:33;9.30;;;3.50;;
44428;SDS011;30134;47.866;-4.222;2023-11-19T02:51:05;8.38;;;3.80;;
44428;SDS011;30134;47.866;-4.222;2023-11-19T02:53:34;8.77;;;3.60;;
44428;SDS011;30134;47.866;-4.222;2023-11-19T02:56:02;7.03;;;3.30;;
44428;SDS011;30134;47.866;-4.222;2023-11-19T02:58:50;7.25;;;3.42;;
44428;SDS011;30134;47.866;-4.222;2023-11-19T03:01:25;6.28;;;2.85;;
44428;SDS011;30134;47.866;-4.222;2023-11-19T03:03:58;9.98;;;3.25;;
44428;SDS011;30134;47.866;-4.222;2023-11-19T03:06:26;8.10;;;3.10;;
44428;SDS011;30134;47.866;-4.222;2023-11-19T03:08:54;6.75;;;2.95;;
44428;SDS011;30134;47.866;-4.222;2023-11-19T03:11:21;7.30;;;3.10;;
44428;SDS011;30134;47.866;-4.222;2023-11-19T03:13:47;5.95;;;2.80;;
44428;SDS011;30134;47.866;-4.222;2023-11-19T03:16:13;5.75;;;2.63;;
44428;SDS011;30134;47.866;-4.222;2023-11-19T03:18:39;5.78;;;2.42;;
44428;SDS011;30134;47.866;-4.222;2023-11-19T03:21:06;6.13;;;2.78;;
44428;SDS011;30134;47.866;-4.222;2023-11-19T03:23:35;9.05;;;2.97;;
44428;SDS011;30134;47.866;-4.222;2023-11-19T03:26:02;7.43;;;3.03;;
44428;SDS011;30134;47.866;-4.222;2023-11-19T03:28:31;6.88;;;2.78;;
44428;SDS011;30134;47.866;-4.222;2023-11-19T03:30:57;8.32;;;3.10;;
44428;SDS011;30134;47.866;-4.222;2023-11-19T03:33:23;6.65;;;2.60;;
44428;SDS011;30134;47.866;-4.222;2023-11-19T03:35:52;5.72;;;2.50;;
44428;SDS011;30134;47.866;-4.222;2023-11-19T03:38:19;7.20;;;3.03;;
44428;SDS011;30134;47.866;-4.222;2023-11-19T03:40:45;7.47;;;2.78;;
44428;SDS011;30134;47.866;-4.222;2023-11-19T03:43:11;6.40;;;2.65;;
44428;SDS011;30134;47.866;-4.222;2023-11-19T03:45:37;6.53;;;2.70;;
44428;SDS011;30134;47.866;-4.222;2023-11-19T03:48:04;7.10;;;2.75;;
44428;SDS011;30134;47.866;-4.222;2023-11-19T03:50:30;5.85;;;2.35;;
44428;SDS011;30134;47.866;-4.222;2023-11-19T03:53:00;6.28;;;2.30;;
44428;SDS011;30134;47.866;-4.222;2023-11-19T03:55:27;6.63;;;2.97;;
44428;SDS011;30134;47.866;-4.222;2023-11-19T03:57:54;6.35;;;2.63;;
44428;SDS011;30134;47.866;-4.222;2023-11-19T04:00:21;5.28;;;2.20;;
44428;SDS011;30134;47.866;-4.222;2023-11-19T04:02:47;6.25;;;2.47;;
44428;SDS011;30134;47.866;-4.222;2023-11-19T04:05:13;5.38;;;2.20;;
44428;SDS011;30134;47.866;-4.222;2023-11-19T04:07:39;5.88;;;2.28;;
44428;SDS011;30134;47.866;-4.222;2023-11-19T04:10:06;6.28;;;2.33;;
44428;SDS011;30134;47.866;-4.222;2023-11-19T04:12:32;7.55;;;2.40;;
44428;SDS011;30134;47.866;-4.222;2023-11-19T04:14:59;6.05;;;2.33;;
44428;SDS011;30134;47.866;-4.222;2023-11-19T04:17:25;4.93;;;2.13;;
44428;SDS011;30134;47.866;-4.222;2023-11-19T04:19:51;5.63;;;2.40;;
44428;SDS011;30134;47.866;-4.222;2023-11-19T04:22:17;7.82;;;2.45;;
44428;SDS011;30134;47.866;-4.222;2023-11-19T04:24:43;7.22;;;2.35;;
44428;SDS011;30134;47.866;-4.222;2023-11-19T04:27:10;5.63;;;2.03;;
44428;SDS011;30134;47.866;-4.222;2023-11-19T04:29:40;6.22;;;2.33;;
44428;SDS011;30134;47.866;-4.222;2023-11-19T04:34:40;5.22;;;2.08;;
44428;SDS011;30134;47.866;-4.222;2023-11-19T04:37:06;5.72;;;1.95;;
44428;SDS011;30134;47.866;-4.222;2023-11-19T04:39:32;7.85;;;2.63;;
44428;SDS011;30134;47.866;-4.222;2023-11-19T04:41:58;5.30;;;1.70;;
44428;SDS011;30134;47.866;-4.222;2023-11-19T04:44:25;5.70;;;1.92;;
44428;SDS011;30134;47.866;-4.222;2023-11-19T04:46:51;5.15;;;1.85;;
44428;SDS011;30134;47.866;-4.222;2023-11-19T04:49:17;6.05;;;2.08;;
44428;SDS011;30134;47.866;-4.222;2023-11-19T04:51:44;4.63;;;1.90;;
44428;SDS011;30134;47.866;-4.222;2023-11-19T04:54:12;6.63;;;1.85;;
44428;SDS011;30134;47.866;-4.222;2023-11-19T04:56:39;6.63;;;1.88;;
44428;SDS011;30134;47.866;-4.222;2023-11-19T04:59:06;5.25;;;2.05;;
44428;SDS011;30134;47.866;-4.222;2023-11-19T05:01:32;4.47;;;1.90;;
44428;SDS011;30134;47.866;-4.222;2023-11-19T05:03:59;6.45;;;1.90;;
44428;SDS011;30134;47.866;-4.222;2023-11-19T05:06:28;6.93;;;1.98;;
44428;SDS011;30134;47.866;-4.222;2023-11-19T05:09:00;5.53;;;1.88;;
44428;SDS011;30134;47.866;-4.222;2023-11-19T05:11:30;6.65;;;2.13;;
44428;SDS011;30134;47.866;-4.222;2023-11-19T05:13:59;5.57;;;1.77;;
44428;SDS011;30134;47.866;-4.222;2023-11-19T05:16:25;4.88;;;1.77;;
44428;SDS011;30134;47.866;-4.222;2023-11-19T05:18:54;6.00;;;2.13;;
44428;SDS011;30134;47.866;-4.222;2023-11-19T05:21:20;4.70;;;1.90;;
44428;SDS011;30134;47.866;-4.222;2023-11-19T05:23:46;4.75;;;2.10;;
44428;SDS011;30134;47.866;-4.222;2023-11-19T05:26:19;5.18;;;1.77;;
44428;SDS011;30134;47.866;-4.222;2023-11-19T05:28:46;4.65;;;1.90;;
44428;SDS011;30134;47.866;-4.222;2023-11-19T05:31:12;6.05;;;1.83;;
44428;SDS011;30134;47.866;-4.222;2023-11-19T05:33:39;5.85;;;2.00;;
44428;SDS011;30134;47.866;-4.222;2023-11-19T05:36:06;4.75;;;1.70;;
44428;SDS011;30134;47.866;-4.222;2023-11-19T05:38:33;5.13;;;1.92;;
44428;SDS011;30134;47.866;-4.222;2023-11-19T05:41:01;7.30;;;2.33;;
44428;SDS011;30134;47.866;-4.222;2023-11-19T05:43:28;7.28;;;2.15;;
44428;SDS011;30134;47.866;-4.222;2023-11-19T05:45:55;3.88;;;1.60;;
44428;SDS011;30134;47.866;-4.222;2023-11-19T05:48:21;6.30;;;2.10;;
44428;SDS011;30134;47.866;-4.222;2023-11-19T05:50:47;5.05;;;2.17;;
44428;SDS011;30134;47.866;-4.222;2023-11-19T05:53:15;5.35;;;1.70;;
44428;SDS011;30134;47.866;-4.222;2023-11-19T05:55:45;4.43;;;1.80;;
44428;SDS011;30134;47.866;-4.222;2023-11-19T05:58:19;3.25;;;1.38;;
44428;SDS011;30134;47.866;-4.222;2023-11-19T06:00:57;4.38;;;1.70;;
44428;SDS011;30134;47.866;-4.222;2023-11-19T06:03:26;6.28;;;1.65;;
44428;SDS011;30134;47.866;-4.222;2023-11-19T06:05:53;5.07;;;1.63;;
44428;SDS011;30134;47.866;-4.222;2023-11-19T06:08:22;4.80;;;1.77;;
44428;SDS011;30134;47.866;-4.222;2023-11-19T06:10:48;4.88;;;1.40;;
44428;SDS011;30134;47.866;-4.222;2023-11-19T06:13:19;5.68;;;2.30;;
44428;SDS011;30134;47.866;-4.222;2023-11-19T06:15:48;4.25;;;1.58;;
44428;SDS011;30134;47.866;-4.222;2023-11-19T06:18:16;6.60;;;2.10;;
44428;SDS011;30134;47.866;-4.222;2023-11-19T06:20:44;6.07;;;1.67;;
44428;SDS011;30134;47.866;-4.222;2023-11-19T06:23:11;6.93;;;2.00;;
44428;SDS011;30134;47.866;-4.222;2023-11-19T06:25:38;3.65;;;1.58;;
44428;SDS011;30134;47.866;-4.222;2023-11-19T06:28:04;3.58;;;1.48;;
44428;SDS011;30134;47.866;-4.222;2023-11-19T06:30:30;5.45;;;1.92;;
44428;SDS011;30134;47.866;-4.222;2023-11-19T06:32:58;8.45;;;1.80;;
44428;SDS011;30134;47.866;-4.222;2023-11-19T06:35:24;6.53;;;2.17;;
44428;SDS011;30134;47.866;-4.222;2023-11-19T06:37:51;5.13;;;1.83;;
44428;SDS011;30134;47.866;-4.222;2023-11-19T06:40:17;5.05;;;2.00;;
44428;SDS011;30134;47.866;-4.222;2023-11-19T06:42:46;5.50;;;1.88;;
44428;SDS011;30134;47.866;-4.222;2023-11-19T06:45:12;3.63;;;1.42;;
44428;SDS011;30134;47.866;-4.222;2023-11-19T06:47:39;6.38;;;2.10;;
44428;SDS011;30134;47.866;-4.222;2023-11-19T06:50:06;3.50;;;1.52;;
44428;SDS011;30134;47.866;-4.222;2023-11-19T06:52:34;3.90;;;1.55;;
44428;SDS011;30134;47.866;-4.222;2023-11-19T06:55:02;6.20;;;2.17;;
44428;SDS011;30134;47.866;-4.222;2023-11-19T06:57:30;4.05;;;1.60;;
44428;SDS011;30134;47.866;-4.222;2023-11-19T06:59:57;3.35;;;1.25;;
44428;SDS011;30134;47.866;-4.222;2023-11-19T07:02:24;2.88;;;1.35;;
44428;SDS011;30134;47.866;-4.222;2023-11-19T07:04:52;9.30;;;1.95;;
44428;SDS011;30134;47.866;-4.222;2023-11-19T07:07:22;7.07;;;1.55;;
44428;SDS011;30134;47.866;-4.222;2023-11-19T07:09:48;3.88;;;1.30;;
44428;SDS011;30134;47.866;-4.222;2023-11-19T07:12:15;4.88;;;1.30;;
44428;SDS011;30134;47.866;-4.222;2023-11-19T07:14:41;5.95;;;2.40;;
44428;SDS011;30134;47.866;-4.222;2023-11-19T07:17:07;18.67;;;7.30;;
44428;SDS011;30134;47.866;-4.222;2023-11-19T07:19:38;35.53;;;16.10;;
44428;SDS011;30134;47.866;-4.222;2023-11-19T07:22:04;50.65;;;23.30;;
44428;SDS011;30134;47.866;-4.222;2023-11-19T07:24:38;52.55;;;25.67;;
44428;SDS011;30134;47.866;-4.222;2023-11-19T07:27:06;57.55;;;26.02;;
44428;SDS011;30134;47.866;-4.222;2023-11-19T07:29:34;55.63;;;27.38;;
44428;SDS011;30134;47.866;-4.222;2023-11-19T07:32:01;52.65;;;25.70;;
44428;SDS011;30134;47.866;-4.222;2023-11-19T07:34:27;54.30;;;26.38;;
44428;SDS011;30134;47.866;-4.222;2023-11-19T07:36:54;48.75;;;24.45;;
44428;SDS011;30134;47.866;-4.222;2023-11-19T07:39:24;51.20;;;23.67;;
44428;SDS011;30134;47.866;-4.222;2023-11-19T07:41:54;48.78;;;23.42;;
44428;SDS011;30134;47.866;-4.222;2023-11-19T07:44:20;45.35;;;21.23;;
44428;SDS011;30134;47.866;-4.222;2023-11-19T07:46:47;48.58;;;22.13;;
44428;SDS011;30134;47.866;-4.222;2023-11-19T07:49:14;44.38;;;20.70;;
44428;SDS011;30134;47.866;-4.222;2023-11-19T07:51:40;46.80;;;20.42;;
44428;SDS011;30134;47.866;-4.222;2023-11-19T07:54:07;39.72;;;20.08;;
44428;SDS011;30134;47.866;-4.222;2023-11-19T07:56:33;44.80;;;20.95;;
44428;SDS011;30134;47.866;-4.222;2023-11-19T07:59:01;38.33;;;18.73;;
44428;SDS011;30134;47.866;-4.222;2023-11-19T08:01:28;39.00;;;19.33;;
44428;SDS011;30134;47.866;-4.222;2023-11-19T08:03:55;37.30;;;18.42;;
44428;SDS011;30134;47.866;-4.222;2023-11-19T08:06:22;41.40;;;18.70;;
44428;SDS011;30134;47.866;-4.222;2023-11-19T08:08:48;32.35;;;16.60;;
44428;SDS011;30134;47.866;-4.222;2023-11-19T08:11:15;30.88;;;16.50;;
44428;SDS011;30134;47.866;-4.222;2023-11-19T08:13:41;35.60;;;16.55;;
44428;SDS011;30134;47.866;-4.222;2023-11-19T08:16:07;36.28;;;16.90;;
44428;SDS011;30134;47.866;-4.222;2023-11-19T08:18:34;32.67;;;15.40;;
44428;SDS011;30134;47.866;-4.222;2023-11-19T08:21:01;32.22;;;14.52;;
44428;SDS011;30134;47.866;-4.222;2023-11-19T08:23:29;32.50;;;15.55;;
44428;SDS011;30134;47.866;-4.222;2023-11-19T08:25:56;28.83;;;14.10;;
44428;SDS011;30134;47.866;-4.222;2023-11-19T08:28:22;33.45;;;15.13;;
44428;SDS011;30134;47.866;-4.222;2023-11-19T08:30:48;26.63;;;14.30;;
44428;SDS011;30134;47.866;-4.222;2023-11-19T08:33:15;25.38;;;12.55;;
44428;SDS011;30134;47.866;-4.222;2023-11-19T08:35:44;25.23;;;12.07;;
44428;SDS011;30134;47.866;-4.222;2023-11-19T08:38:12;31.13;;;12.15;;
44428;SDS011;30134;47.866;-4.222;2023-11-19T08:40:38;28.58;;;13.05;;
44428;SDS011;30134;47.866;-4.222;2023-11-19T08:43:10;28.48;;;13.57;;
44428;SDS011;30134;47.866;-4.222;2023-11-19T08:45:40;31.60;;;12.68;;
44428;SDS011;30134;47.866;-4.222;2023-11-19T08:48:06;49.30;;;20.45;;
44428;SDS011;30134;47.866;-4.222;2023-11-19T08:50:36;61.33;;;28.45;;
44428;SDS011;30134;47.866;-4.222;2023-11-19T08:53:03;85.03;;;35.45;;
44428;SDS011;30134;47.866;-4.222;2023-11-19T08:55:32;86.85;;;42.13;;
44428;SDS011;30134;47.866;-4.222;2023-11-19T08:58:08;93.85;;;43.67;;
44428;SDS011;30134;47.866;-4.222;2023-11-19T09:00:34;96.45;;;45.33;;
44428;SDS011;30134;47.866;-4.222;2023-11-19T09:03:03;96.03;;;43.85;;
44428;SDS011;30134;47.866;-4.222;2023-11-19T09:05:30;83.65;;;41.65;;
44428;SDS011;30134;47.866;-4.222;2023-11-19T09:08:00;86.95;;;41.50;;
44428;SDS011;30134;47.866;-4.222;2023-11-19T09:10:27;84.00;;;39.10;;
44428;SDS011;30134;47.866;-4.222;2023-11-19T09:12:54;84.03;;;39.95;;
44428;SDS011;30134;47.866;-4.222;2023-11-19T09:15:23;77.00;;;36.70;;
44428;SDS011;30134;47.866;-4.222;2023-11-19T09:17:51;80.93;;;36.83;;
44428;SDS011;30134;47.866;-4.222;2023-11-19T09:20:21;82.32;;;36.35;;
44428;SDS011;30134;47.866;-4.222;2023-11-19T09:22:48;74.78;;;34.60;;
44428;SDS011;30134;47.866;-4.222;2023-11-19T09:25:17;66.88;;;32.88;;
44428;SDS011;30134;47.866;-4.222;2023-11-19T09:27:43;66.60;;;29.98;;
44428;SDS011;30134;47.866;-4.222;2023-11-19T09:30:10;62.53;;;29.73;;
44428;SDS011;30134;47.866;-4.222;2023-11-19T09:32:38;60.72;;;27.88;;
44428;SDS011;30134;47.866;-4.222;2023-11-19T09:35:04;58.55;;;27.58;;
44428;SDS011;30134;47.866;-4.222;2023-11-19T09:37:32;59.80;;;27.67;;
44428;SDS011;30134;47.866;-4.222;2023-11-19T09:40:01;51.90;;;25.35;;
44428;SDS011;30134;47.866;-4.222;2023-11-19T09:42:28;49.55;;;24.90;;
44428;SDS011;30134;47.866;-4.222;2023-11-19T09:44:57;52.78;;;23.98;;
44428;SDS011;30134;47.866;-4.222;2023-11-19T09:47:25;50.72;;;22.90;;
44428;SDS011;30134;47.866;-4.222;2023-11-19T09:49:52;46.25;;;21.85;;
44428;SDS011;30134;47.866;-4.222;2023-11-19T09:52:19;44.00;;;21.70;;
44428;SDS011;30134;47.866;-4.222;2023-11-19T09:54:45;48.72;;;20.77;;
44428;SDS011;30134;47.866;-4.222;2023-11-19T09:57:11;41.55;;;19.88;;
44428;SDS011;30134;47.866;-4.222;2023-11-19T09:59:40;41.75;;;18.80;;
44428;SDS011;30134;47.866;-4.222;2023-11-19T10:02:07;42.17;;;18.65;;
44428;SDS011;30134;47.866;-4.222;2023-11-19T10:04:34;41.70;;;18.33;;
44428;SDS011;30134;47.866;-4.222;2023-11-19T10:07:02;40.45;;;17.75;;
44428;SDS011;30134;47.866;-4.222;2023-11-19T10:09:29;37.63;;;17.50;;
44428;SDS011;30134;47.866;-4.222;2023-11-19T10:11:55;35.40;;;15.95;;
44428;SDS011;30134;47.866;-4.222;2023-11-19T10:14:23;31.15;;;14.73;;
44428;SDS011;30134;47.866;-4.222;2023-11-19T10:16:49;32.72;;;13.85;;
44428;SDS011;30134;47.866;-4.222;2023-11-19T10:19:20;28.85;;;14.10;;
44428;SDS011;30134;47.866;-4.222;2023-11-19T10:22:01;29.52;;;12.50;;
44428;SDS011;30134;47.866;-4.222;2023-11-19T10:24:32;28.48;;;12.15;;
44428;SDS011;30134;47.866;-4.222;2023-11-19T10:26:59;26.50;;;12.73;;
44428;SDS011;30134;47.866;-4.222;2023-11-19T10:29:31;24.52;;;11.45;;
44428;SDS011;30134;47.866;-4.222;2023-11-19T10:32:00;27.48;;;11.57;;
44428;SDS011;30134;47.866;-4.222;2023-11-19T10:34:27;24.90;;;11.50;;
44428;SDS011;30134;47.866;-4.222;2023-11-19T10:36:55;26.85;;;10.90;;
44428;SDS011;30134;47.866;-4.222;2023-11-19T10:39:21;23.95;;;10.07;;
44428;SDS011;30134;47.866;-4.222;2023-11-19T10:41:51;25.42;;;10.10;;
44428;SDS011;30134;47.866;-4.222;2023-11-19T10:44:33;21.08;;;9.70;;
44428;SDS011;30134;47.866;-4.222;2023-11-19T10:47:06;25.40;;;9.75;;
44428;SDS011;30134;47.866;-4.222;2023-11-19T10:49:35;20.38;;;8.65;;
44428;SDS011;30134;47.866;-4.222;2023-11-19T10:52:01;22.08;;;9.07;;
44428;SDS011;30134;47.866;-4.222;2023-11-19T10:54:30;39.17;;;9.30;;
44428;SDS011;30134;47.866;-4.222;2023-11-19T10:56:59;20.90;;;8.00;;
44428;SDS011;30134;47.866;-4.222;2023-11-19T10:59:31;18.83;;;6.53;;
44428;SDS011;30134;47.866;-4.222;2023-11-19T11:01:57;15.88;;;5.85;;
44428;SDS011;30134;47.866;-4.222;2023-11-19T11:04:33;14.27;;;4.88;;
44428;SDS011;30134;47.866;-4.222;2023-11-19T11:07:12;18.33;;;5.22;;
44428;SDS011;30134;47.866;-4.222;2023-11-19T11:09:41;12.50;;;3.72;;
44428;SDS011;30134;47.866;-4.222;2023-11-19T11:12:14;12.77;;;3.45;;
44428;SDS011;30134;47.866;-4.222;2023-11-19T11:14:49;10.82;;;3.60;;
44428;SDS011;30134;47.866;-4.222;2023-11-19T11:17:35;12.23;;;3.47;;
44428;SDS011;30134;47.866;-4.222;2023-11-19T11:20:05;12.27;;;3.45;;
44428;SDS011;30134;47.866;-4.222;2023-11-19T11:22:36;12.57;;;3.25;;
44428;SDS011;30134;47.866;-4.222;2023-11-19T11:28:20;11.52;;;2.97;;
44428;SDS011;30134;47.866;-4.222;2023-11-19T11:37:45;12.23;;;3.00;;
44428;SDS011;30134;47.866;-4.222;2023-11-19T11:40:21;9.60;;;2.40;;
44428;SDS011;30134;47.866;-4.222;2023-11-19T11:42:48;6.20;;;2.20;;
44428;SDS011;30134;47.866;-4.222;2023-11-19T11:45:17;11.48;;;2.80;;
44428;SDS011;30134;47.866;-4.222;2023-11-19T11:50:50;13.48;;;3.08;;
44428;SDS011;30134;47.866;-4.222;2023-11-19T11:53:23;15.25;;;3.25;;
44428;SDS011;30134;47.866;-4.222;2023-11-19T11:58:27;10.20;;;2.75;;
44428;SDS011;30134;47.866;-4.222;2023-11-19T12:00:58;9.88;;;2.30;;
44428;SDS011;30134;47.866;-4.222;2023-11-19T12:03:28;25.30;;;3.58;;
44428;SDS011;30134;47.866;-4.222;2023-11-19T12:06:01;12.13;;;3.38;;
44428;SDS011;30134;47.866;-4.222;2023-11-19T12:08:28;9.75;;;2.78;;
44428;SDS011;30134;47.866;-4.222;2023-11-19T12:10:56;14.82;;;2.90;;
44428;SDS011;30134;47.866;-4.222;2023-11-19T12:14:09;20.95;;;3.65;;
44428;SDS011;30134;47.866;-4.222;2023-11-19T12:16:28;14.98;;;3.35;;
44428;SDS011;30134;47.866;-4.222;2023-11-19T12:18:59;18.05;;;3.45;;
44428;SDS011;30134;47.866;-4.222;2023-11-19T12:21:34;12.23;;;2.63;;
44428;SDS011;30134;47.866;-4.222;2023-11-19T12:24:07;15.68;;;3.08;;
44428;SDS011;30134;47.866;-4.222;2023-11-19T12:26:34;10.75;;;2.47;;
44428;SDS011;30134;47.866;-4.222;2023-11-19T12:29:05;12.30;;;3.65;;
44428;SDS011;30134;47.866;-4.222;2023-11-19T12:31:33;9.95;;;2.55;;
44428;SDS011;30134;47.866;-4.222;2023-11-19T12:34:09;15.13;;;3.45;;
44428;SDS011;30134;47.866;-4.222;2023-11-19T12:36:37;7.97;;;2.33;;
44428;SDS011;30134;47.866;-4.222;2023-11-19T12:39:04;12.13;;;2.70;;
44428;SDS011;30134;47.866;-4.222;2023-11-19T12:41:48;12.63;;;2.63;;
44428;SDS011;30134;47.866;-4.222;2023-11-19T12:44:16;9.60;;;2.47;;
44428;SDS011;30134;47.866;-4.222;2023-11-19T12:46:45;10.05;;;2.40;;
44428;SDS011;30134;47.866;-4.222;2023-11-19T12:49:27;8.20;;;2.40;;
44428;SDS011;30134;47.866;-4.222;2023-11-19T12:51:56;10.40;;;2.78;;
44428;SDS011;30134;47.866;-4.222;2023-11-19T12:54:35;11.50;;;3.10;;
44428;SDS011;30134;47.866;-4.222;2023-11-19T12:57:02;16.02;;;3.05;;
44428;SDS011;30134;47.866;-4.222;2023-11-19T12:59:33;9.90;;;2.67;;
44428;SDS011;30134;47.866;-4.222;2023-11-19T13:02:00;8.82;;;2.53;;
44428;SDS011;30134;47.866;-4.222;2023-11-19T13:04:30;13.30;;;3.15;;
44428;SDS011;30134;47.866;-4.222;2023-11-19T13:06:56;12.80;;;2.72;;
44428;SDS011;30134;47.866;-4.222;2023-11-19T13:09:29;8.90;;;2.17;;
44428;SDS011;30134;47.866;-4.222;2023-11-19T13:11:56;9.95;;;2.60;;
44428;SDS011;30134;47.866;-4.222;2023-11-19T13:14:37;12.90;;;3.37;;
44428;SDS011;30134;47.866;-4.222;2023-11-19T13:17:07;17.63;;;5.93;;
44428;SDS011;30134;47.866;-4.222;2023-11-19T13:19:33;24.85;;;8.68;;
44428;SDS011;30134;47.866;-4.222;2023-11-19T13:22:03;25.85;;;8.93;;
44428;SDS011;30134;47.866;-4.222;2023-11-19T13:24:29;27.88;;;9.55;;
44428;SDS011;30134;47.866;-4.222;2023-11-19T13:26:55;27.90;;;10.23;;
44428;SDS011;30134;47.866;-4.222;2023-11-19T13:29:30;25.42;;;10.43;;
44428;SDS011;30134;47.866;-4.222;2023-11-19T13:31:57;27.75;;;10.52;;
44428;SDS011;30134;47.866;-4.222;2023-11-19T13:34:26;25.60;;;9.77;;
44428;SDS011;30134;47.866;-4.222;2023-11-19T13:36:52;23.63;;;8.90;;
44428;SDS011;30134;47.866;-4.222;2023-11-19T13:39:19;27.75;;;9.50;;
44428;SDS011;30134;47.866;-4.222;2023-11-19T13:41:48;24.52;;;8.27;;
44428;SDS011;30134;47.866;-4.222;2023-11-19T13:44:15;19.02;;;7.35;;
44428;SDS011;30134;47.866;-4.222;2023-11-19T13:46:44;25.13;;;5.78;;
44428;SDS011;30134;47.866;-4.222;2023-11-19T13:49:13;31.52;;;9.07;;
44428;SDS011;30134;47.866;-4.222;2023-11-19T13:51:40;74.53;;;26.05;;
44428;SDS011;30134;47.866;-4.222;2023-11-19T13:54:07;108.43;;;46.55;;
44428;SDS011;30134;47.866;-4.222;2023-11-19T13:56:35;100.20;;;42.88;;
44428;SDS011;30134;47.866;-4.222;2023-11-19T13:59:02;81.75;;;38.17;;
44428;SDS011;30134;47.866;-4.222;2023-11-19T14:01:29;82.82;;;36.15;;
44428;SDS011;30134;47.866;-4.222;2023-11-19T14:03:56;69.90;;;31.58;;
44428;SDS011;30134;47.866;-4.222;2023-11-19T14:06:36;71.40;;;33.13;;
44428;SDS011;30134;47.866;-4.222;2023-11-19T14:09:06;77.70;;;31.05;;
44428;SDS011;30134;47.866;-4.222;2023-11-19T14:11:43;66.35;;;28.45;;
44428;SDS011;30134;47.866;-4.222;2023-11-19T14:14:16;61.30;;;26.63;;
44428;SDS011;30134;47.866;-4.222;2023-11-19T14:16:42;65.65;;;26.88;;
44428;SDS011;30134;47.866;-4.222;2023-11-19T14:19:15;62.80;;;25.38;;
44428;SDS011;30134;47.866;-4.222;2023-11-19T14:21:46;59.28;;;24.90;;
44428;SDS011;30134;47.866;-4.222;2023-11-19T14:24:13;58.83;;;24.08;;
44428;SDS011;30134;47.866;-4.222;2023-11-19T14:26:39;54.70;;;23.65;;
44428;SDS011;30134;47.866;-4.222;2023-11-19T14:29:05;53.63;;;22.90;;
44428;SDS011;30134;47.866;-4.222;2023-11-19T14:31:32;56.13;;;22.30;;
44428;SDS011;30134;47.866;-4.222;2023-11-19T14:33:58;45.92;;;19.38;;
44428;SDS011;30134;47.866;-4.222;2023-11-19T14:36:25;46.97;;;18.80;;
44428;SDS011;30134;47.866;-4.222;2023-11-19T14:38:52;45.60;;;18.52;;
44428;SDS011;30134;47.866;-4.222;2023-11-19T14:41:18;47.05;;;19.05;;
44428;SDS011;30134;47.866;-4.222;2023-11-19T14:43:44;38.78;;;16.23;;
44428;SDS011;30134;47.866;-4.222;2023-11-19T14:46:12;39.85;;;16.92;;
44428;SDS011;30134;47.866;-4.222;2023-11-19T14:48:38;36.05;;;15.82;;